createdAt,value
2023-04-09T00:01:07.180Z,99074.78
2023-04-09T00:02:10.839Z,99075.69
2023-04-09T00:03:14.790Z,99079.19
2023-04-09T00:04:17.828Z,99084.38
2023-04-09T00:05:19.681Z,99075.06
2023-04-09T00:06:22.636Z,99085.41
2023-04-09T00:07:24.442Z,99076.03
2023-04-09T00:08:27.354Z,99075.31
2023-04-09T00:09:29.623Z,99078.06
2023-04-09T00:10:32.440Z,99075.72
2023-04-09T00:11:34.296Z,99081.19
2023-04-09T00:12:37.914Z,99083.97
2023-04-09T00:13:40.152Z,99079.88
2023-04-09T00:14:44.394Z,99083.53
2023-04-09T00:15:46.801Z,99081.16
2023-04-09T00:16:49.629Z,99083.91
2023-04-09T00:17:52.352Z,99076.31
2023-04-09T00:18:56.383Z,99086.00
2023-04-09T00:19:58.207Z,99089.00
2023-04-09T00:21:01.010Z,99092.13
2023-04-09T00:22:03.231Z,99093.56
2023-04-09T00:23:06.085Z,99097.56
2023-04-09T00:24:07.910Z,99092.88
2023-04-09T00:25:10.758Z,99096.69
2023-04-09T00:26:12.581Z,99093.63
2023-04-09T00:27:15.780Z,99099.03
2023-04-09T00:28:18.069Z,99095.84
2023-04-09T00:29:21.317Z,99097.00
2023-04-09T00:30:24.772Z,99100.84
2023-04-09T00:31:27.666Z,99099.47
2023-04-09T00:32:29.521Z,99103.31
2023-04-09T00:33:32.358Z,99100.31
2023-04-09T00:34:34.374Z,99098.00
2023-04-09T00:35:37.226Z,99103.34
2023-04-09T00:36:39.080Z,99101.75
2023-04-09T00:37:42.052Z,99108.75
2023-04-09T00:38:43.935Z,99101.16
2023-04-09T00:39:47.763Z,99093.56
2023-04-09T00:40:50.449Z,99094.63
2023-04-09T00:41:57.854Z,99091.22
2023-04-09T00:42:59.660Z,99086.88
2023-04-09T00:44:02.511Z,99091.28
2023-04-09T00:45:06.021Z,99083.63
2023-04-09T00:46:10.342Z,99078.53
2023-04-09T00:47:12.606Z,99083.78
2023-04-09T00:48:16.145Z,99085.53
2023-04-09T00:49:18.074Z,99079.50
2023-04-09T00:50:24.645Z,99076.88
2023-04-09T00:51:26.792Z,99072.63
2023-04-09T00:52:31.029Z,99074.34
2023-04-09T00:53:34.937Z,99076.03
2023-04-09T00:54:37.016Z,99077.78
2023-04-09T00:55:41.521Z,99077.78
2023-04-09T00:56:44.099Z,99077.78
2023-04-09T00:57:46.950Z,99070.28
2023-04-09T00:58:49.352Z,99073.81
2023-04-09T00:59:52.378Z,99076.63
2023-04-09T01:00:56.084Z,99082.81
2023-04-09T01:01:59.344Z,99077.63
2023-04-09T01:03:02.590Z,99079.31
2023-04-09T01:04:04.771Z,99080.97
2023-04-09T01:05:08.081Z,99078.31
2023-04-09T01:06:13.749Z,99078.25
2023-04-09T01:07:21.881Z,99082.50
2023-04-09T01:08:32.532Z,99080.00
2023-04-09T01:09:38.342Z,99080.84
2023-04-09T01:10:42.685Z,99078.31
2023-04-09T01:11:52.925Z,99082.63
2023-04-09T01:13:03.928Z,99078.31
2023-04-09T01:14:11.393Z,99083.47
2023-04-09T01:15:16.998Z,99080.88
2023-04-09T01:16:19.490Z,99080.00
2023-04-09T01:17:27.238Z,99080.75
2023-04-09T01:18:31.565Z,99087.66
2023-04-09T01:19:43.123Z,99079.81
2023-04-09T01:20:50.302Z,99081.50
2023-04-09T01:21:53.590Z,99081.56
2023-04-09T01:23:02.636Z,99078.16
2023-04-09T01:24:15.947Z,99079.00
2023-04-09T01:25:32.921Z,99081.56
2023-04-09T01:26:46.793Z,99087.56
2023-04-09T01:27:59.579Z,99085.81
2023-04-09T01:29:04.304Z,99089.25
2023-04-09T01:30:07.605Z,99092.59
2023-04-09T01:31:13.589Z,99090.94
2023-04-09T01:32:17.016Z,99093.44
2023-04-09T01:33:25.023Z,99094.19
2023-04-09T01:34:27.588Z,99088.88
2023-04-09T01:35:30.900Z,99102.38
2023-04-09T01:36:33.634Z,99092.75
2023-04-09T01:37:37.008Z,99090.81
2023-04-09T01:38:41.127Z,99096.59
2023-04-09T01:39:44.265Z,99093.94
2023-04-09T01:40:46.180Z,99091.19
2023-04-09T01:41:49.580Z,99086.78
2023-04-09T01:42:52.032Z,99085.78
2023-04-09T01:43:55.372Z,99091.69
2023-04-09T01:44:59.381Z,99088.97
2023-04-09T01:46:03.437Z,99091.31
2023-04-09T01:47:05.555Z,99094.63
2023-04-09T01:48:08.404Z,99097.16
2023-04-09T01:49:11.634Z,99094.59
2023-04-09T01:50:15.000Z,99096.31
2023-04-09T01:51:17.658Z,99094.63
2023-04-09T01:52:20.828Z,99093.66
2023-04-09T01:53:22.829Z,99092.00
2023-04-09T01:54:26.238Z,99091.91
2023-04-09T01:55:31.339Z,99087.56
2023-04-09T01:56:42.037Z,99089.31
2023-04-09T01:57:43.839Z,99094.63
2023-04-09T01:58:46.812Z,99091.41
2023-04-09T01:59:48.643Z,99086.28
2023-04-09T02:00:59.929Z,99088.13
2023-04-09T02:02:11.117Z,99083.19
2023-04-09T02:03:18.369Z,99092.69
2023-04-09T02:04:25.157Z,99091.88
2023-04-09T02:05:29.490Z,99088.50
2023-04-09T02:06:36.013Z,99091.09
2023-04-09T02:07:40.570Z,99095.38
2023-04-09T02:08:46.492Z,99091.88
2023-04-09T02:09:48.601Z,99092.69
2023-04-09T02:10:55.617Z,99090.84
2023-04-09T02:11:58.875Z,99095.97
2023-04-09T02:13:03.191Z,99092.47
2023-04-09T02:14:08.665Z,99093.16
2023-04-09T02:15:13.992Z,99093.91
2023-04-09T02:16:17.700Z,99090.47
2023-04-09T02:17:20.830Z,99088.63
2023-04-09T02:18:24.261Z,99092.88
2023-04-09T02:19:39.538Z,99095.41
2023-04-09T02:20:41.330Z,99093.56
2023-04-09T02:21:45.692Z,99098.75
2023-04-09T02:22:47.705Z,99095.22
2023-04-09T02:23:50.748Z,99096.84
2023-04-09T02:24:53.400Z,99097.59
2023-04-09T02:25:56.285Z,99090.59
2023-04-09T02:26:58.188Z,99093.19
2023-04-09T02:28:01.230Z,99095.78
2023-04-09T02:29:03.535Z,99091.44
2023-04-09T02:30:07.451Z,99096.50
2023-04-09T02:31:09.500Z,99096.50
2023-04-09T02:32:13.768Z,99091.34
2023-04-09T02:33:15.648Z,99094.75
2023-04-09T02:34:18.668Z,99096.50
2023-04-09T02:35:20.818Z,99086.16
2023-04-09T02:36:23.590Z,99089.59
2023-04-09T02:37:26.211Z,99091.34
2023-04-09T02:38:29.030Z,99094.66
2023-04-09T02:39:31.013Z,99091.19
2023-04-09T02:40:33.877Z,99087.84
2023-04-09T02:41:35.859Z,99089.50
2023-04-09T02:42:38.722Z,99082.66
2023-04-09T02:43:42.183Z,99090.41
2023-04-09T02:44:45.281Z,99089.59
2023-04-09T02:45:48.636Z,99093.09
2023-04-09T02:46:52.458Z,99092.16
2023-04-09T02:47:55.953Z,99088.00
2023-04-09T02:48:58.792Z,99093.25
2023-04-09T02:50:00.724Z,99095.09
2023-04-09T02:51:06.922Z,99090.84
2023-04-09T02:52:10.153Z,99090.84
2023-04-09T02:53:13.128Z,99095.91
2023-04-09T02:54:14.965Z,99095.00
2023-04-09T02:55:19.759Z,99091.50
2023-04-09T02:56:21.725Z,99093.94
2023-04-09T02:57:24.562Z,99091.34
2023-04-09T02:58:26.408Z,99093.00
2023-04-09T02:59:29.256Z,99089.44
2023-04-09T03:00:31.384Z,99088.44
2023-04-09T03:01:34.227Z,99084.91
2023-04-09T03:02:36.624Z,99090.03
2023-04-09T03:03:42.520Z,99088.34
2023-04-09T03:04:44.407Z,99096.88
2023-04-09T03:05:48.058Z,99098.53
2023-04-09T03:06:51.591Z,99087.34
2023-04-09T03:07:55.073Z,99095.84
2023-04-09T03:08:58.176Z,99098.38
2023-04-09T03:10:00.979Z,99097.47
2023-04-09T03:11:02.911Z,99091.50
2023-04-09T03:12:05.862Z,99092.38
2023-04-09T03:13:07.722Z,99091.50
2023-04-09T03:14:10.927Z,99090.69
2023-04-09T03:15:14.409Z,99087.19
2023-04-09T03:16:17.333Z,99087.94
2023-04-09T03:17:19.209Z,99087.84
2023-04-09T03:18:22.518Z,99087.03
2023-04-09T03:19:30.693Z,99088.69
2023-04-09T03:20:32.538Z,99085.34
2023-04-09T03:21:35.440Z,99090.53
2023-04-09T03:22:37.628Z,99084.63
2023-04-09T03:23:43.276Z,99090.69
2023-04-09T03:24:45.469Z,99088.19
2023-04-09T03:25:48.260Z,99088.34
2023-04-09T03:26:52.180Z,99091.09
2023-04-09T03:27:55.073Z,99095.50
2023-04-09T03:29:16.534Z,99093.00
2023-04-09T03:30:18.726Z,99097.34
2023-04-09T03:31:21.958Z,99090.50
2023-04-09T03:32:23.978Z,99093.19
2023-04-09T03:33:26.815Z,99100.06
2023-04-09T03:34:32.158Z,99094.16
2023-04-09T03:35:35.107Z,99094.31
2023-04-09T03:36:39.004Z,99094.50
2023-04-09T03:37:54.306Z,99095.66
2023-04-09T03:38:57.478Z,99093.22
2023-04-09T03:40:10.513Z,99088.97
2023-04-09T03:41:13.825Z,99095.97
2023-04-09T03:42:15.824Z,99097.72
2023-04-09T03:43:23.105Z,99096.84
2023-04-09T03:44:27.804Z,99098.63
2023-04-09T03:45:35.512Z,99096.84
2023-04-09T03:46:50.826Z,99096.94
2023-04-09T03:47:57.446Z,99100.44
2023-04-09T03:49:01.730Z,99094.44
2023-04-09T03:50:16.300Z,99098.69
2023-04-09T03:51:27.770Z,99096.94
2023-04-09T03:52:33.925Z,99096.84
2023-04-09T03:53:40.709Z,99097.72
2023-04-09T03:54:43.956Z,99102.72
2023-04-09T03:55:53.628Z,99105.16
2023-04-09T03:57:01.438Z,99104.16
2023-04-09T03:58:03.423Z,99102.34
2023-04-09T03:59:10.023Z,99095.31
2023-04-09T04:00:15.206Z,99093.56
2023-04-09T04:01:26.826Z,99093.72
2023-04-09T04:02:33.837Z,99092.00
2023-04-09T04:03:43.984Z,99085.97
2023-04-09T04:04:52.925Z,99089.41
2023-04-09T04:06:03.421Z,99089.41
2023-04-09T04:07:17.705Z,99087.66
2023-04-09T04:08:29.816Z,99087.72
2023-04-09T04:09:33.378Z,99093.72
2023-04-09T04:10:41.554Z,99090.31
2023-04-09T04:11:44.413Z,99096.38
2023-04-09T04:12:47.889Z,99094.88
2023-04-09T04:14:10.076Z,99089.09
2023-04-09T04:15:14.751Z,99096.94
2023-04-09T04:16:21.278Z,99097.97
2023-04-09T04:17:24.529Z,99096.25
2023-04-09T04:18:27.546Z,99095.59
2023-04-09T04:19:30.746Z,99092.25
2023-04-09T04:20:33.617Z,99089.06
2023-04-09T04:21:44.094Z,99089.28
2023-04-09T04:22:46.132Z,99087.72
2023-04-09T04:23:49.100Z,99091.28
2023-04-09T04:24:57.251Z,99082.78
2023-04-09T04:26:01.164Z,99086.19
2023-04-09T04:27:11.302Z,99086.19
2023-04-09T04:28:13.294Z,99088.63
2023-04-09T04:29:18.017Z,99099.72
2023-04-09T04:30:28.965Z,99100.50
2023-04-09T04:31:38.614Z,99101.25
2023-04-09T04:32:40.776Z,99102.81
2023-04-09T04:33:47.168Z,99099.25
2023-04-09T04:34:50.914Z,99103.41
2023-04-09T04:36:08.095Z,99104.09
2023-04-09T04:37:38.337Z,99113.47
2023-04-09T04:38:41.273Z,99106.44
2023-04-09T04:39:51.230Z,99108.94
2023-04-09T04:40:53.909Z,99112.22
2023-04-09T04:41:58.323Z,99113.81
2023-04-09T04:43:02.839Z,99112.81
2023-04-09T04:44:07.200Z,99110.16
2023-04-09T04:45:13.062Z,99108.34
2023-04-09T04:46:28.812Z,99117.66
2023-04-09T04:47:30.968Z,99109.81
2023-04-09T04:48:34.618Z,99120.09
2023-04-09T04:49:36.483Z,99114.00
2023-04-09T04:50:41.941Z,99109.69
2023-04-09T04:51:46.866Z,99120.84
2023-04-09T04:52:53.185Z,99119.09
2023-04-09T04:53:58.094Z,99110.50
2023-04-09T04:55:01.798Z,99118.13
2023-04-09T04:56:07.614Z,99119.78
2023-04-09T04:57:10.645Z,99114.47
2023-04-09T04:58:15.585Z,99107.44
2023-04-09T04:59:23.005Z,99115.13
2023-04-09T05:00:34.240Z,99114.19
2023-04-09T05:01:39.507Z,99118.38
2023-04-09T05:02:47.409Z,99113.94
2023-04-09T05:03:54.299Z,99117.13
2023-04-09T05:05:17.840Z,99115.22
2023-04-09T05:06:27.948Z,99109.03
2023-04-09T05:07:32.176Z,99114.91
2023-04-09T05:08:36.588Z,99115.56
2023-04-09T05:09:38.513Z,99117.97
2023-04-09T05:10:44.675Z,99111.91
2023-04-09T05:11:47.495Z,99118.56
2023-04-09T05:12:55.033Z,99125.34
2023-04-09T05:14:07.080Z,99121.59
2023-04-09T05:15:10.349Z,99124.84
2023-04-09T05:16:17.451Z,99121.19
2023-04-09T05:17:24.672Z,99121.00
2023-04-09T05:18:26.701Z,99126.75
2023-04-09T05:19:29.879Z,99124.84
2023-04-09T05:20:37.188Z,99127.25
2023-04-09T05:21:46.804Z,99121.91
2023-04-09T05:22:50.517Z,99118.25
2023-04-09T05:24:02.401Z,99121.66
2023-04-09T05:25:08.315Z,99128.41
2023-04-09T05:26:14.644Z,99123.16
2023-04-09T05:27:30.283Z,99122.34
2023-04-09T05:28:37.232Z,99114.56
2023-04-09T05:29:46.110Z,99125.66
2023-04-09T05:30:49.444Z,99127.34
2023-04-09T05:31:54.457Z,99120.41
2023-04-09T05:33:02.425Z,99127.19
2023-04-09T05:34:07.291Z,99123.66
2023-04-09T05:35:14.081Z,99131.44
2023-04-09T05:36:20.447Z,99132.16
2023-04-09T05:37:22.318Z,99133.75
2023-04-09T05:38:27.933Z,99121.50
2023-04-09T05:39:35.056Z,99128.13
2023-04-09T05:40:38.245Z,99130.47
2023-04-09T05:41:47.562Z,99124.22
2023-04-09T05:43:04.617Z,99127.38
2023-04-09T05:44:15.680Z,99129.59
2023-04-09T05:45:18.426Z,99134.44
2023-04-09T05:46:25.810Z,99129.81
2023-04-09T05:47:30.592Z,99138.25
2023-04-09T05:48:38.803Z,99130.22
2023-04-09T05:49:41.192Z,99136.97
2023-04-09T05:50:55.078Z,99128.31
2023-04-09T05:52:00.111Z,99128.00
2023-04-09T05:53:05.545Z,99140.81
2023-04-09T05:54:13.717Z,99133.69
2023-04-09T05:55:18.646Z,99133.44
2023-04-09T05:56:27.090Z,99135.00
2023-04-09T05:57:33.329Z,99133.06
2023-04-09T05:58:38.918Z,99132.91
2023-04-09T05:59:41.755Z,99139.56
2023-04-09T06:00:43.691Z,99138.38
2023-04-09T06:01:46.569Z,99144.13
2023-04-09T06:02:48.599Z,99141.16
2023-04-09T06:03:53.831Z,99134.03
2023-04-09T06:04:57.395Z,99127.59
2023-04-09T06:06:01.066Z,99141.00
2023-04-09T06:07:03.640Z,99131.91
2023-04-09T06:08:06.491Z,99132.47
2023-04-09T06:09:09.973Z,99135.72
2023-04-09T06:10:14.383Z,99135.44
2023-04-09T06:11:21.298Z,99133.19
2023-04-09T06:12:24.107Z,99137.94
2023-04-09T06:13:26.417Z,99142.63
2023-04-09T06:14:29.287Z,99140.50
2023-04-09T06:15:31.340Z,99149.56
2023-04-09T06:16:34.858Z,99143.16
2023-04-09T06:17:36.810Z,99138.50
2023-04-09T06:18:39.636Z,99144.44
2023-04-09T06:19:42.670Z,99146.66
2023-04-09T06:20:44.610Z,99142.00
2023-04-09T06:21:47.501Z,99138.25
2023-04-09T06:22:50.379Z,99143.16
2023-04-09T06:23:53.648Z,99140.16
2023-04-09T06:24:57.269Z,99141.56
2023-04-09T06:25:59.723Z,99143.13
2023-04-09T06:27:04.329Z,99133.38
2023-04-09T06:28:06.625Z,99138.16
2023-04-09T06:29:11.484Z,99147.31
2023-04-09T06:30:15.677Z,99142.66
2023-04-09T06:31:17.781Z,99143.09
2023-04-09T06:32:20.839Z,99145.28
2023-04-09T06:33:24.236Z,99146.75
2023-04-09T06:34:27.123Z,99145.63
2023-04-09T06:35:31.695Z,99144.59
2023-04-09T06:36:33.753Z,99151.22
2023-04-09T06:37:45.966Z,99150.94
2023-04-09T06:38:50.588Z,99150.75
2023-04-09T06:40:00.445Z,99154.28
2023-04-09T06:41:08.480Z,99144.72
2023-04-09T06:42:11.897Z,99156.78
2023-04-09T06:43:25.372Z,99148.03
2023-04-09T06:44:29.804Z,99145.25
2023-04-09T06:45:35.414Z,99151.78
2023-04-09T06:46:37.538Z,99153.97
2023-04-09T06:47:40.535Z,99148.34
2023-04-09T06:48:44.614Z,99148.75
2023-04-09T06:49:47.580Z,99151.06
2023-04-09T06:50:49.501Z,99156.78
2023-04-09T06:51:54.924Z,99163.28
2023-04-09T06:52:58.405Z,99165.66
2023-04-09T06:54:00.416Z,99164.50
2023-04-09T06:55:03.617Z,99161.72
2023-04-09T06:56:06.244Z,99165.97
2023-04-09T06:57:09.323Z,99165.75
2023-04-09T06:58:12.747Z,99164.00
2023-04-09T06:59:16.225Z,99168.25
2023-04-09T07:00:18.182Z,99170.75
2023-04-09T07:01:21.769Z,99167.22
2023-04-09T07:03:41.777Z,99169.69
2023-04-09T07:04:45.026Z,99177.63
2023-04-09T07:05:48.649Z,99167.22
2023-04-09T07:06:54.832Z,99169.63
2023-04-09T07:07:57.063Z,99166.78
2023-04-09T07:09:00.026Z,99177.00
2023-04-09T07:10:03.089Z,99165.50
2023-04-09T07:11:06.547Z,99174.91
2023-04-09T07:12:09.437Z,99181.66
2023-04-09T07:13:12.764Z,99165.19
2023-04-09T07:14:21.735Z,99175.53
2023-04-09T07:15:23.703Z,99176.34
2023-04-09T07:16:26.598Z,99171.97
2023-04-09T07:17:37.557Z,99175.41
2023-04-09T07:18:40.758Z,99181.34
2023-04-09T07:19:42.701Z,99182.16
2023-04-09T07:20:46.867Z,99180.50
2023-04-09T07:21:48.762Z,99175.22
2023-04-09T07:22:51.593Z,99176.03
2023-04-09T07:23:54.806Z,99175.22
2023-04-09T07:24:56.925Z,99170.09
2023-04-09T07:26:03.302Z,99169.25
2023-04-09T07:27:06.475Z,99170.41
2023-04-09T07:28:08.488Z,99173.97
2023-04-09T07:29:12.927Z,99173.13
2023-04-09T07:30:15.018Z,99168.75
2023-04-09T07:31:17.990Z,99173.44
2023-04-09T07:32:22.556Z,99165.88
2023-04-09T07:33:25.958Z,99167.00
2023-04-09T07:34:28.566Z,99174.31
2023-04-09T07:35:38.933Z,99174.63
2023-04-09T07:36:43.108Z,99165.34
2023-04-09T07:37:46.675Z,99166.41
2023-04-09T07:38:49.817Z,99169.91
2023-04-09T07:39:54.901Z,99171.69
2023-04-09T07:40:58.458Z,99165.66
2023-04-09T07:42:02.821Z,99168.25
2023-04-09T07:43:07.567Z,99165.78
2023-04-09T07:44:38.727Z,99171.81
2023-04-09T07:45:45.051Z,99171.59
2023-04-09T07:46:48.015Z,99175.66
2023-04-09T07:47:51.577Z,99172.84
2023-04-09T07:48:55.192Z,99174.50
2023-04-09T07:49:57.301Z,99171.91
2023-04-09T07:51:00.729Z,99171.91
2023-04-09T07:52:44.631Z,99178.88
2023-04-09T07:53:56.090Z,99169.28
2023-04-09T07:54:58.572Z,99175.31
2023-04-09T07:56:04.605Z,99176.06
2023-04-09T07:57:14.843Z,99177.63
2023-04-09T07:58:17.879Z,99178.38
2023-04-09T07:59:20.053Z,99180.63
2023-04-09T08:00:30.727Z,99179.47
2023-04-09T08:01:32.953Z,99175.84
2023-04-09T08:02:36.462Z,99180.09
2023-04-09T08:03:39.621Z,99184.25
2023-04-09T08:04:42.851Z,99177.06
2023-04-09T08:05:45.989Z,99180.31
2023-04-09T08:06:52.712Z,99180.06
2023-04-09T08:07:54.767Z,99180.69
2023-04-09T08:08:57.658Z,99185.72
2023-04-09T08:09:59.587Z,99181.97
2023-04-09T08:11:03.535Z,99181.00
2023-04-09T08:12:05.638Z,99179.00
2023-04-09T08:13:09.596Z,99179.41
2023-04-09T08:14:13.916Z,99183.34
2023-04-09T08:15:16.826Z,99185.66
2023-04-09T08:16:23.569Z,99180.19
2023-04-09T08:17:27.824Z,99188.50
2023-04-09T08:18:31.285Z,99186.41
2023-04-09T08:19:33.358Z,99191.41
2023-04-09T08:20:36.573Z,99188.94
2023-04-09T08:21:38.745Z,99190.78
2023-04-09T08:22:44.676Z,99194.16
2023-04-09T08:23:47.648Z,99195.81
2023-04-09T08:24:52.826Z,99193.91
2023-04-09T08:25:54.746Z,99191.19
2023-04-09T08:26:58.569Z,99196.31
2023-04-09T08:28:00.791Z,99180.75
2023-04-09T08:29:03.810Z,99199.13
2023-04-09T08:30:07.905Z,99190.47
2023-04-09T08:31:09.825Z,99195.69
2023-04-09T08:32:14.224Z,99191.41
2023-04-09T08:34:48.702Z,99198.28
2023-04-09T08:35:51.597Z,99194.97
2023-04-09T08:36:53.640Z,99195.69
2023-04-09T08:37:57.620Z,99195.56
2023-04-09T08:39:00.568Z,99194.53
2023-04-09T08:40:03.935Z,99202.09
2023-04-09T08:41:05.898Z,99199.50
2023-04-09T08:42:12.547Z,99202.03
2023-04-09T08:43:16.824Z,99195.03
2023-04-09T08:44:18.852Z,99194.28
2023-04-09T08:45:22.460Z,99194.28
2023-04-09T08:46:24.944Z,99203.06
2023-04-09T08:47:29.467Z,99197.84
2023-04-09T08:48:32.671Z,99201.59
2023-04-09T08:49:35.823Z,99185.38
2023-04-09T08:50:37.772Z,99196.25
2023-04-09T08:51:40.804Z,99196.44
2023-04-09T08:52:43.044Z,99195.13
2023-04-09T08:53:47.752Z,99192.50
2023-04-09T08:54:52.109Z,99184.56
2023-04-09T08:55:54.895Z,99188.13
2023-04-09T08:56:58.937Z,99192.50
2023-04-09T08:58:04.716Z,99194.28
2023-04-09T08:59:07.660Z,99187.41
2023-04-09T09:00:10.607Z,99187.31
2023-04-09T09:01:21.722Z,99189.66
2023-04-09T09:02:24.998Z,99194.56
2023-04-09T09:03:28.430Z,99192.56
2023-04-09T09:04:44.970Z,99196.63
2023-04-09T09:05:47.124Z,99196.63
2023-04-09T09:06:50.208Z,99191.19
2023-04-09T09:07:54.662Z,99194.19
2023-04-09T09:09:06.122Z,99195.63
2023-04-09T09:10:09.819Z,99200.75
2023-04-09T09:11:25.917Z,99204.06
2023-04-09T09:12:36.972Z,99200.50
2023-04-09T09:13:39.869Z,99201.94
2023-04-09T09:14:42.957Z,99206.97
2023-04-09T09:15:46.194Z,99202.13
2023-04-09T09:17:05.314Z,99205.22
2023-04-09T09:18:08.732Z,99206.06
2023-04-09T09:19:30.472Z,99198.94
2023-04-09T09:20:32.506Z,99199.06
2023-04-09T09:21:36.490Z,99206.75
2023-04-09T09:22:54.923Z,99198.22
2023-04-09T09:23:58.812Z,99200.34
2023-04-09T09:25:00.974Z,99197.97
2023-04-09T09:26:13.186Z,99195.69
2023-04-09T09:27:31.407Z,99197.47
2023-04-09T09:28:36.404Z,99205.06
2023-04-09T09:29:41.858Z,99202.13
2023-04-09T09:30:49.174Z,99199.06
2023-04-09T09:31:55.591Z,99208.34
2023-04-09T09:33:05.772Z,99210.72
2023-04-09T09:34:10.162Z,99204.56
2023-04-09T09:35:14.781Z,99207.16
2023-04-09T09:36:17.742Z,99199.34
2023-04-09T09:37:26.995Z,99207.25
2023-04-09T09:38:32.147Z,99204.88
2023-04-09T09:39:44.696Z,99206.44
2023-04-09T09:40:47.780Z,99208.13
2023-04-09T09:42:08.188Z,99205.75
2023-04-09T09:43:11.878Z,99202.00
2023-04-09T09:44:32.910Z,99207.81
2023-04-09T09:45:36.757Z,99193.56
2023-04-09T09:46:41.647Z,99202.63
2023-04-09T09:47:44.670Z,99209.16
2023-04-09T09:48:50.003Z,99202.66
2023-04-09T09:49:52.441Z,99197.09
2023-04-09T09:50:56.920Z,99191.31
2023-04-09T09:52:00.590Z,99201.19
2023-04-09T09:53:05.589Z,99201.06
2023-04-09T09:54:08.523Z,99199.19
2023-04-09T09:55:14.940Z,99193.72
2023-04-09T09:56:20.770Z,99197.63
2023-04-09T09:57:26.804Z,99196.94
2023-04-09T09:58:32.782Z,99197.28
2023-04-09T09:59:38.930Z,99196.72
2023-04-09T10:00:41.341Z,99198.00
2023-04-09T10:01:47.505Z,99197.53
2023-04-09T10:02:59.318Z,99192.91
2023-04-09T10:04:02.829Z,99191.59
2023-04-09T10:05:07.450Z,99194.56
2023-04-09T10:06:12.605Z,99196.81
2023-04-09T10:07:16.120Z,99195.84
2023-04-09T10:08:19.717Z,99192.41
2023-04-09T10:09:23.232Z,99195.16
2023-04-09T10:10:25.302Z,99195.72
2023-04-09T10:11:28.310Z,99187.66
2023-04-09T10:12:31.296Z,99186.59
2023-04-09T10:13:36.689Z,99194.91
2023-04-09T10:14:41.095Z,99194.50
2023-04-09T10:15:44.705Z,99193.19
2023-04-09T10:16:47.698Z,99190.94
2023-04-09T10:17:50.604Z,99188.66
2023-04-09T10:18:54.517Z,99187.19
2023-04-09T10:20:01.870Z,99184.22
2023-04-09T10:21:10.432Z,99179.69
2023-04-09T10:22:19.186Z,99183.00
2023-04-09T10:23:29.192Z,99178.59
2023-04-09T10:24:32.714Z,99181.81
2023-04-09T10:25:35.676Z,99183.22
2023-04-09T10:26:42.085Z,99177.22
2023-04-09T10:27:46.129Z,99170.19
2023-04-09T10:29:05.443Z,99176.06
2023-04-09T10:30:10.774Z,99177.25
2023-04-09T10:31:14.322Z,99169.84
2023-04-09T10:32:21.611Z,99170.53
2023-04-09T10:33:26.649Z,99177.69
2023-04-09T10:34:30.177Z,99173.38
2023-04-09T10:35:32.088Z,99169.84
2023-04-09T10:36:34.984Z,99169.56
2023-04-09T10:37:49.644Z,99166.41
2023-04-09T10:38:52.692Z,99169.75
2023-04-09T10:39:54.893Z,99162.72
2023-04-09T10:40:58.562Z,99166.88
2023-04-09T10:42:02.448Z,99167.31
2023-04-09T10:43:06.461Z,99167.06
2023-04-09T10:44:20.441Z,99160.59
2023-04-09T10:45:23.421Z,99166.53
2023-04-09T10:46:26.907Z,99164.34
2023-04-09T10:47:33.765Z,99173.81
2023-04-09T10:48:35.936Z,99165.56
2023-04-09T10:49:42.819Z,99167.84
2023-04-09T10:50:51.192Z,99168.88
2023-04-09T10:51:55.618Z,99170.16
2023-04-09T10:53:02.275Z,99173.34
2023-04-09T10:54:46.231Z,99172.41
2023-04-09T10:55:50.504Z,99161.38
2023-04-09T10:57:14.032Z,99172.56
2023-04-09T10:58:17.010Z,99168.97
2023-04-09T10:59:21.042Z,99162.19
2023-04-09T11:00:27.351Z,99166.47
2023-04-09T11:01:29.417Z,99160.78
2023-04-09T11:03:08.422Z,99154.56
2023-04-09T11:04:43.131Z,99157.00
2023-04-09T11:05:49.400Z,99151.66
2023-04-09T11:06:53.374Z,99156.06
2023-04-09T11:07:59.607Z,99149.50
2023-04-09T11:09:04.673Z,99152.97
2023-04-09T11:10:07.989Z,99154.59
2023-04-09T11:11:11.530Z,99151.94
2023-04-09T11:12:13.413Z,99151.38
2023-04-09T11:13:17.586Z,99149.22
2023-04-09T11:14:20.038Z,99152.69
2023-04-09T11:15:23.305Z,99153.84
2023-04-09T11:16:29.004Z,99153.56
2023-04-09T11:17:31.480Z,99149.38
2023-04-09T11:18:36.971Z,99145.38
2023-04-09T11:20:08.709Z,99150.03
2023-04-09T11:21:13.436Z,99142.66
2023-04-09T11:22:15.668Z,99146.19
2023-04-09T11:23:19.138Z,99151.50
2023-04-09T11:24:23.185Z,99148.28
2023-04-09T11:25:27.848Z,99141.25
2023-04-09T11:26:36.061Z,99145.41
2023-04-09T11:27:39.811Z,99149.28
2023-04-09T11:28:44.451Z,99148.03
2023-04-09T11:29:46.375Z,99153.72
2023-04-09T11:30:53.023Z,99154.13
2023-04-09T11:31:55.542Z,99160.22
2023-04-09T11:32:58.550Z,99149.50
2023-04-09T11:34:01.433Z,99152.66
2023-04-09T11:35:03.731Z,99154.22
2023-04-09T11:36:07.399Z,99149.97
2023-04-09T11:37:14.418Z,99145.84
2023-04-09T11:38:17.414Z,99138.72
2023-04-09T11:39:19.317Z,99146.53
2023-04-09T11:40:24.576Z,99148.50
2023-04-09T11:41:36.683Z,99142.03
2023-04-09T11:42:38.779Z,99148.81
2023-04-09T11:43:41.772Z,99136.75
2023-04-09T11:44:51.611Z,99142.91
2023-04-09T11:45:53.959Z,99143.56
2023-04-09T11:46:58.108Z,99143.41
2023-04-09T11:48:03.353Z,99138.94
2023-04-09T11:49:05.520Z,99138.28
2023-04-09T11:50:09.734Z,99141.44
2023-04-09T11:51:12.632Z,99143.28
2023-04-09T11:52:16.522Z,99145.09
2023-04-09T11:53:20.789Z,99146.31
2023-04-09T11:54:22.859Z,99142.06
2023-04-09T11:55:28.218Z,99150.81
2023-04-09T11:56:31.139Z,99147.66
2023-04-09T11:57:44.753Z,99147.16
2023-04-09T11:58:48.187Z,99151.06
2023-04-09T11:59:50.202Z,99146.94
2023-04-09T12:01:01.361Z,99149.41
2023-04-09T12:02:07.837Z,99147.41
2023-04-09T12:03:12.182Z,99153.19
2023-04-09T12:04:21.361Z,99153.69
2023-04-09T12:05:24.875Z,99144.59
2023-04-09T12:06:28.583Z,99153.53
2023-04-09T12:07:33.303Z,99147.94
2023-04-09T12:08:37.332Z,99156.19
2023-04-09T12:09:47.737Z,99152.91
2023-04-09T12:10:53.578Z,99153.06
2023-04-09T12:11:57.471Z,99152.72
2023-04-09T12:13:04.618Z,99147.06
2023-04-09T12:14:07.906Z,99143.84
2023-04-09T12:15:20.704Z,99145.84
2023-04-09T12:16:23.886Z,99138.34
2023-04-09T12:17:27.080Z,99142.97
2023-04-09T12:18:30.014Z,99140.41
2023-04-09T12:19:32.051Z,99146.63
2023-04-09T12:20:36.677Z,99141.19
2023-04-09T12:21:50.055Z,99139.97
2023-04-09T12:22:52.085Z,99139.38
2023-04-09T12:23:55.349Z,99145.03
2023-04-09T12:24:57.789Z,99145.31
2023-04-09T12:26:02.447Z,99139.72
2023-04-09T12:27:07.032Z,99142.91
2023-04-09T12:28:12.042Z,99135.97
2023-04-09T12:29:15.070Z,99136.69
2023-04-09T12:30:18.971Z,99143.00
2023-04-09T12:31:22.066Z,99141.59
2023-04-09T12:32:24.435Z,99140.84
2023-04-09T12:33:31.108Z,99132.91
2023-04-09T12:34:42.415Z,99138.28
2023-04-09T12:35:45.696Z,99132.84
2023-04-09T12:36:48.371Z,99130.38
2023-04-09T12:37:52.114Z,99133.91
2023-04-09T12:38:54.319Z,99140.25
2023-04-09T12:39:57.697Z,99134.06
2023-04-09T12:41:04.425Z,99137.53
2023-04-09T12:42:06.955Z,99135.91
2023-04-09T12:43:10.537Z,99133.16
2023-04-09T12:44:13.038Z,99134.53
2023-04-09T12:45:19.346Z,99137.03
2023-04-09T12:46:22.020Z,99136.91
2023-04-09T12:47:25.123Z,99139.81
2023-04-09T12:48:27.691Z,99143.56
2023-04-09T12:49:31.769Z,99138.72